Time;durP1;ratioP1;P1;durP2;ratioP2;P2;SDS_P1;SDS_P2;PMS_P1;PMS_P2;Temp;Humidity;BMP_temperature;BMP_pressure;BME280_temperature;BME280_humidity;BME280_pressure;Samples;Min_cycle;Max_cycle;Signal;HPM_P1;HPM_P2
2022/10/30 00:00:43;;;;;;;5.00;1.45;;;27.90;20.40;;;;;;5042701;28;20499;-58
2022/10/30 00:03:14;;;;;;;1.88;1.23;;;27.90;21.10;;;;;;5036043;28;20082;-59
2022/10/30 00:05:45;;;;;;;5.22;1.20;;;27.80;21.20;;;;;;5039796;28;20077;-61
2022/10/30 00:08:13;;;;;;;3.15;1.30;;;27.80;21.20;;;;;;5038123;28;20537;-61
2022/10/30 00:10:40;;;;;;;6.57;1.65;;;27.60;21.80;;;;;;5037199;28;21322;-61
2022/10/30 00:13:08;;;;;;;3.25;1.17;;;27.70;21.30;;;;;;5035778;28;20065;-61
2022/10/30 00:15:34;;;;;;;3.60;1.40;;;27.90;21.00;;;;;;5034135;28;20621;-57
2022/10/30 00:18:01;;;;;;;5.13;1.50;;;27.80;21.40;;;;;;5034925;28;20075;-61
2022/10/30 00:20:28;;;;;;;6.22;1.40;;;27.70;22.20;;;;;;5040815;28;20184;-56
2022/10/30 00:22:54;;;;;;;4.90;1.70;;;27.60;21.80;;;;;;5036782;28;20073;-59
2022/10/30 00:25:20;;;;;;;11.88;5.20;;;27.40;22.10;;;;;;5035278;28;20112;-59
2022/10/30 00:27:47;;;;;;;15.23;6.70;;;27.20;22.10;;;;;;5037388;28;20069;-56
2022/10/30 00:30:15;;;;;;;4.03;1.77;;;27.10;23.10;;;;;;5041021;28;20098;-57
2022/10/30 00:32:42;;;;;;;6.25;1.20;;;26.90;23.20;;;;;;5036671;28;20070;-58
2022/10/30 00:35:10;;;;;;;3.42;1.05;;;26.80;22.80;;;;;;5034095;28;20080;-60
2022/10/30 00:37:36;;;;;;;1.73;0.98;;;26.70;23.50;;;;;;5042272;28;20120;-60
2022/10/30 00:40:04;;;;;;;5.57;1.30;;;26.50;23.40;;;;;;5035042;28;20426;-59
2022/10/30 00:42:30;;;;;;;7.53;1.55;;;26.40;24.00;;;;;;5040671;28;20085;-57
2022/10/30 00:44:57;;;;;;;8.85;1.70;;;26.30;24.10;;;;;;5037271;28;20070;-56
2022/10/30 00:47:33;;;;;;;8.85;2.33;;;26.20;24.00;;;;;;5037217;28;20070;-55
2022/10/30 00:50:02;;;;;;;6.60;2.33;;;26.00;24.50;;;;;;5035720;28;20069;-60
2022/10/30 00:52:35;;;;;;;15.00;3.13;;;25.80;24.50;;;;;;5034383;28;20135;-55
2022/10/30 00:55:23;;;;;;;7.57;2.53;;;25.60;25.30;;;;;;5035455;28;20077;-54
2022/10/30 00:57:52;;;;;;;10.77;3.53;;;25.40;26.10;;;;;;5030144;28;20157;-61
2022/10/30 01:00:22;;;;;;;16.10;3.55;;;25.30;26.70;;;;;;5044483;28;20074;-56
2022/10/30 01:02:49;;;;;;;17.60;3.83;;;25.00;27.60;;;;;;5033362;28;20094;-56
2022/10/30 01:05:19;;;;;;;12.35;4.22;;;24.90;27.80;;;;;;5038707;28;20077;-60
2022/10/30 01:07:45;;;;;;;18.80;4.95;;;24.70;27.20;;;;;;5040217;28;20530;-56
2022/10/30 01:10:13;;;;;;;14.77;5.10;;;24.70;27.20;;;;;;5037892;28;20546;-57
2022/10/30 01:12:42;;;;;;;13.73;4.68;;;24.50;27.20;;;;;;5036262;28;20615;-53
2022/10/30 01:15:09;;;;;;;17.15;4.63;;;24.40;27.20;;;;;;5033157;28;20571;-56
2022/10/30 01:18:00;;;;;;;18.55;5.35;;;24.20;27.40;;;;;;5032490;28;20146;-53
2022/10/30 01:20:41;;;;;;;15.40;6.05;;;24.10;27.60;;;;;;5033783;28;20088;-55
2022/10/30 01:23:29;;;;;;;20.50;6.22;;;24.00;28.10;;;;;;5032013;28;20070;-56
2022/10/30 01:26:27;;;;;;;20.60;6.15;;;23.90;28.30;;;;;;5030359;28;20097;-58
2022/10/30 01:29:18;;;;;;;19.23;6.85;;;23.80;29.00;;;;;;5036798;28;20518;-57
2022/10/30 01:31:57;;;;;;;26.42;7.18;;;23.70;29.40;;;;;;5037938;28;20523;-54
2022/10/30 01:34:42;;;;;;;21.77;6.35;;;23.60;29.70;;;;;;5031711;28;20069;-59
2022/10/30 01:37:39;;;;;;;19.90;5.70;;;23.50;30.30;;;;;;5033215;28;20124;-54
2022/10/30 01:40:11;;;;;;;21.35;5.82;;;23.30;30.90;;;;;;5033810;28;20094;-60
2022/10/30 01:42:48;;;;;;;24.02;5.78;;;23.20;31.60;;;;;;5033835;28;20153;-55
2022/10/30 01:45:29;;;;;;;19.65;6.43;;;22.90;30.80;;;;;;5041516;28;20073;-55
2022/10/30 01:48:20;;;;;;;25.80;6.25;;;22.80;31.10;;;;;;5033083;28;20143;-56
2022/10/30 01:51:44;;;;;;;47.67;7.28;;;22.70;31.70;;;;;;5042860;28;20086;-60
2022/10/30 01:54:38;;;;;;;26.70;6.43;;;22.70;32.50;;;;;;5006412;28;20220;-56
2022/10/30 01:57:07;;;;;;;29.10;7.03;;;22.50;32.30;;;;;;5006746;28;20070;-55
2022/10/30 02:00:05;;;;;;;27.48;6.15;;;22.50;32.50;;;;;;5007481;28;20130;-57
2022/10/30 02:02:32;;;;;;;35.97;7.82;;;22.30;32.60;;;;;;5005505;28;20140;-55
2022/10/30 02:05:00;;;;;;;33.35;7.07;;;22.30;32.80;;;;;;5007567;28;20087;-59
2022/10/30 02:07:27;;;;;;;40.30;7.88;;;22.10;33.50;;;;;;5007520;28;20528;-56
2022/10/30 02:09:54;;;;;;;30.90;6.55;;;22.00;33.20;;;;;;5007080;28;20085;-61
2022/10/30 02:12:22;;;;;;;26.02;6.10;;;21.90;33.20;;;;;;5007553;28;20098;-55
2022/10/30 02:14:56;;;;;;;35.78;6.18;;;21.80;33.40;;;;;;4991342;28;20293;-59
2022/10/30 02:17:24;;;;;;;25.20;5.88;;;21.80;33.60;;;;;;5007082;28;20201;-55
2022/10/30 02:19:50;;;;;;;25.70;5.50;;;21.70;33.60;;;;;;5006980;28;20144;-59
2022/10/30 02:22:17;;;;;;;17.90;5.53;;;21.50;33.60;;;;;;5007057;28;20078;-58
2022/10/30 02:24:44;;;;;;;17.65;5.47;;;21.50;34.10;;;;;;5024769;28;20136;-55
2022/10/30 02:27:10;;;;;;;21.13;5.45;;;21.40;34.60;;;;;;5034731;28;20070;-56
2022/10/30 02:29:37;;;;;;;20.83;5.65;;;21.30;34.90;;;;;;5039170;28;20462;-59
2022/10/30 02:32:03;;;;;;;20.40;5.55;;;21.30;35.40;;;;;;5044487;28;20546;-59
2022/10/30 02:34:30;;;;;;;33.75;6.30;;;21.30;35.10;;;;;;5037703;28;20074;-59
2022/10/30 02:36:56;;;;;;;22.73;5.90;;;21.30;35.30;;;;;;5036750;28;20081;-55
2022/10/30 02:39:22;;;;;;;22.92;6.35;;;21.20;35.20;;;;;;5036204;28;20121;-59
2022/10/30 02:41:49;;;;;;;20.67;6.53;;;21.10;35.00;;;;;;5038024;28;20283;-56
2022/10/30 02:44:15;;;;;;;24.98;7.07;;;21.10;35.10;;;;;;5035901;28;20074;-59
2022/10/30 02:46:42;;;;;;;31.92;7.00;;;21.00;34.80;;;;;;5037799;28;20108;-55
2022/10/30 02:49:08;;;;;;;28.77;6.32;;;21.00;36.00;;;;;;5047046;28;20122;-57
2022/10/30 02:51:34;;;;;;;20.08;6.63;;;20.90;36.40;;;;;;5041214;28;20136;-55
2022/10/30 02:54:01;;;;;;;40.55;7.57;;;20.90;36.60;;;;;;5038736;28;20200;-59
2022/10/30 02:56:27;;;;;;;33.50;7.80;;;20.80;36.50;;;;;;5041173;28;20438;-54
2022/10/30 02:58:56;;;;;;;41.47;8.55;;;20.70;36.30;;;;;;5046314;28;20126;-59
2022/10/30 03:01:26;;;;;;;33.45;9.00;;;20.70;36.70;;;;;;5036895;28;20078;-60
2022/10/30 03:03:52;;;;;;;68.18;10.68;;;20.70;36.80;;;;;;5036871;28;20090;-59
2022/10/30 03:06:19;;;;;;;47.55;10.18;;;20.70;37.10;;;;;;5043365;28;20085;-61
2022/10/30 03:08:45;;;;;;;45.75;10.73;;;20.60;37.30;;;;;;5037030;28;20100;-56
2022/10/30 03:11:18;;;;;;;41.67;10.57;;;20.60;37.60;;;;;;5035080;28;20093;-60
2022/10/30 03:13:46;;;;;;;51.05;13.63;;;20.50;37.50;;;;;;5042348;28;20066;-60
2022/10/30 03:16:19;;;;;;;57.72;14.43;;;20.50;37.30;;;;;;5041514;28;20128;-59
2022/10/30 03:18:47;;;;;;;45.50;13.40;;;20.50;37.70;;;;;;5041576;28;20415;-55
2022/10/30 03:21:18;;;;;;;52.85;13.90;;;20.40;37.70;;;;;;5038559;28;20504;-60
2022/10/30 03:23:46;;;;;;;51.75;13.70;;;20.40;37.80;;;;;;5035312;28;20113;-59
2022/10/30 03:26:12;;;;;;;47.70;13.48;;;20.30;38.20;;;;;;5036553;28;20586;-59
2022/10/30 03:28:39;;;;;;;50.97;13.30;;;20.30;38.80;;;;;;5037370;28;20089;-58
2022/10/30 03:31:08;;;;;;;73.18;16.65;;;20.20;38.70;;;;;;5044042;28;20465;-58
2022/10/30 03:33:35;;;;;;;59.72;16.75;;;20.10;38.10;;;;;;5039490;28;20449;-54
2022/10/30 03:36:06;;;;;;;63.47;18.67;;;20.00;37.50;;;;;;5040272;28;20477;-61
2022/10/30 03:38:34;;;;;;;77.78;17.27;;;20.00;37.70;;;;;;5037079;28;20135;-55
2022/10/30 03:41:00;;;;;;;56.03;16.65;;;20.00;38.70;;;;;;5037596;28;20449;-59
2022/10/30 03:43:27;;;;;;;61.58;17.02;;;19.90;38.80;;;;;;5037385;28;20077;-57
2022/10/30 03:45:55;;;;;;;71.57;17.50;;;19.90;40.40;;;;;;5035035;28;20084;-56
2022/10/30 03:48:24;;;;;;;66.78;18.27;;;19.90;39.30;;;;;;5035848;28;20077;-58
2022/10/30 03:50:54;;;;;;;69.88;16.77;;;19.80;39.00;;;;;;5038951;28;20082;-55
2022/10/30 03:53:22;;;;;;;73.55;17.95;;;19.80;38.70;;;;;;5037532;28;20086;-59
2022/10/30 03:55:49;;;;;;;64.93;18.58;;;19.80;38.10;;;;;;5036345;28;20074;-59
2022/10/30 03:58:15;;;;;;;68.20;18.88;;;19.70;38.00;;;;;;5038970;28;20135;-55
2022/10/30 04:00:42;;;;;;;54.58;17.20;;;19.70;38.10;;;;;;5040245;28;20084;-57
2022/10/30 04:03:09;;;;;;;61.00;19.30;;;19.60;38.50;;;;;;5038603;28;20070;-56
2022/10/30 04:05:36;;;;;;;70.63;19.35;;;19.60;39.10;;;;;;5037034;28;20085;-55
2022/10/30 04:08:06;;;;;;;72.47;18.13;;;19.60;40.80;;;;;;5035830;28;20077;-55
2022/10/30 04:10:33;;;;;;;71.47;18.75;;;19.50;40.60;;;;;;5034763;28;20151;-59
2022/10/30 04:13:04;;;;;;;77.38;18.50;;;19.50;39.70;;;;;;5040802;28;20073;-56
2022/10/30 04:15:31;;;;;;;73.10;19.60;;;19.40;41.00;;;;;;5038018;28;20562;-56
2022/10/30 04:17:57;;;;;;;66.65;20.48;;;19.40;41.10;;;;;;5037066;28;20073;-57
2022/10/30 04:20:25;;;;;;;93.68;21.05;;;19.40;41.70;;;;;;5037831;28;20081;-56
2022/10/30 04:23:02;;;;;;;103.18;23.58;;;19.40;41.00;;;;;;5034588;28;20082;-56
2022/10/30 04:25:29;;;;;;;82.25;21.38;;;19.30;41.20;;;;;;5036762;28;20488;-57
2022/10/30 04:27:56;;;;;;;92.03;23.35;;;19.30;41.00;;;;;;5040095;28;20070;-54
2022/10/30 04:30:26;;;;;;;102.63;22.77;;;19.20;41.10;;;;;;5032165;28;20196;-55
2022/10/30 04:32:56;;;;;;;96.20;25.02;;;19.30;40.70;;;;;;5033059;28;20073;-55
2022/10/30 04:35:26;;;;;;;107.30;25.23;;;19.20;41.00;;;;;;5033860;28;20062;-59
2022/10/30 04:37:56;;;;;;;97.80;26.15;;;19.20;40.80;;;;;;5036474;28;20515;-57
2022/10/30 04:40:25;;;;;;;96.88;24.48;;;19.20;40.40;;;;;;5037055;28;20485;-58
2022/10/30 04:42:52;;;;;;;97.93;27.80;;;19.20;40.70;;;;;;5034971;28;20403;-55
2022/10/30 04:45:18;;;;;;;109.80;28.48;;;19.20;42.30;;;;;;5034589;28;20434;-58
2022/10/30 04:47:45;;;;;;;107.63;29.55;;;19.10;41.70;;;;;;5032670;28;20089;-59
2022/10/30 04:50:12;;;;;;;101.93;27.90;;;19.00;43.20;;;;;;5040844;28;20093;-58
2022/10/30 04:52:39;;;;;;;114.40;28.67;;;18.90;42.80;;;;;;5041532;28;20112;-55
2022/10/30 04:55:07;;;;;;;105.75;30.58;;;18.90;43.70;;;;;;5041451;28;20149;-56
2022/10/30 04:57:35;;;;;;;141.75;31.60;;;18.90;43.50;;;;;;5037728;28;20070;-57
2022/10/30 05:00:04;;;;;;;125.15;33.63;;;18.80;43.70;;;;;;5033376;28;20539;-55
2022/10/30 05:02:30;;;;;;;130.70;32.15;;;18.80;42.90;;;;;;5038307;28;20115;-60
2022/10/30 05:04:57;;;;;;;106.13;29.85;;;18.80;43.20;;;;;;5037066;28;20070;-58
2022/10/30 05:07:23;;;;;;;146.40;34.50;;;18.80;42.80;;;;;;5037098;28;20066;-55
2022/10/30 05:09:50;;;;;;;109.78;30.27;;;18.80;43.30;;;;;;5036125;28;20097;-56
2022/10/30 05:12:18;;;;;;;132.10;33.25;;;18.80;42.50;;;;;;5037066;28;20092;-55
2022/10/30 05:14:45;;;;;;;134.73;30.67;;;18.70;42.80;;;;;;5035986;28;20529;-59
2022/10/30 05:17:11;;;;;;;133.55;32.70;;;18.70;44.50;;;;;;5035080;28;20077;-57
2022/10/30 05:19:37;;;;;;;132.40;32.92;;;18.70;43.40;;;;;;5033999;28;20070;-59
2022/10/30 05:22:04;;;;;;;124.00;32.03;;;18.70;42.40;;;;;;5034751;28;20458;-56
2022/10/30 05:24:30;;;;;;;130.95;33.72;;;18.50;43.10;;;;;;5035350;28;20438;-59
2022/10/30 05:26:56;;;;;;;132.43;33.03;;;18.60;44.30;;;;;;5031659;28;20074;-56
2022/10/30 05:29:23;;;;;;;143.48;34.88;;;18.50;44.00;;;;;;5033186;28;20081;-54
2022/10/30 05:31:49;;;;;;;135.98;32.65;;;18.50;43.50;;;;;;5035506;28;20114;-57
2022/10/30 05:34:15;;;;;;;155.93;34.65;;;18.40;43.30;;;;;;5050803;28;20093;-59
2022/10/30 05:36:42;;;;;;;142.75;37.35;;;18.40;44.90;;;;;;5033300;28;20073;-60
2022/10/30 05:39:08;;;;;;;139.65;36.17;;;18.40;43.30;;;;;;5035581;28;20093;-59
2022/10/30 05:41:35;;;;;;;157.48;39.70;;;18.30;45.40;;;;;;5039824;28;20555;-56
2022/10/30 05:44:01;;;;;;;144.90;39.42;;;18.40;44.10;;;;;;5033043;28;20562;-56
2022/10/30 05:46:27;;;;;;;161.10;43.97;;;18.40;44.50;;;;;;5037826;28;20070;-57
2022/10/30 05:48:54;;;;;;;139.15;39.47;;;18.30;44.30;;;;;;5036025;28;20153;-59
2022/10/30 05:51:20;;;;;;;140.20;41.03;;;18.30;46.00;;;;;;5032900;28;20101;-58
2022/10/30 05:53:49;;;;;;;158.43;42.78;;;18.30;45.10;;;;;;5031822;28;20070;-57
2022/10/30 05:56:15;;;;;;;163.75;43.15;;;18.30;44.90;;;;;;5033105;28;20093;-55
2022/10/30 05:58:42;;;;;;;153.07;43.28;;;18.30;44.80;;;;;;5032846;28;20097;-59
2022/10/30 06:01:09;;;;;;;146.30;43.05;;;18.20;45.80;;;;;;5038863;28;20085;-55
2022/10/30 06:03:35;;;;;;;143.07;43.15;;;18.20;46.00;;;;;;5035423;28;20558;-56
2022/10/30 06:06:01;;;;;;;143.25;42.00;;;18.10;46.00;;;;;;5035842;28;20506;-57
2022/10/30 06:08:28;;;;;;;152.35;42.42;;;18.10;46.00;;;;;;5042613;28;20148;-56
2022/10/30 06:10:54;;;;;;;142.57;43.85;;;18.10;46.20;;;;;;5038629;28;20082;-56
2022/10/30 06:13:21;;;;;;;129.32;42.47;;;18.10;47.40;;;;;;5042160;28;20069;-59
2022/10/30 06:15:47;;;;;;;137.18;41.65;;;18.10;47.10;;;;;;5039032;28;20116;-59
2022/10/30 06:18:14;;;;;;;152.80;42.15;;;18.00;46.40;;;;;;5038010;28;20535;-57
2022/10/30 06:20:40;;;;;;;151.15;41.75;;;17.90;47.20;;;;;;5036864;28;20074;-58
2022/10/30 06:23:09;;;;;;;136.65;42.45;;;17.90;46.80;;;;;;5038911;28;20076;-58
2022/10/30 06:25:36;;;;;;;167.50;41.42;;;17.80;47.80;;;;;;5036472;28;20081;-60
2022/10/30 06:28:02;;;;;;;145.23;43.47;;;17.90;47.00;;;;;;5046766;28;20081;-56
2022/10/30 06:30:29;;;;;;;130.52;41.20;;;17.90;47.10;;;;;;5039146;28;20094;-58
2022/10/30 06:33:01;;;;;;;164.82;41.17;;;17.80;46.60;;;;;;5038110;28;20074;-60
2022/10/30 06:35:29;;;;;;;156.80;45.42;;;17.80;46.30;;;;;;5038280;28;20070;-57
2022/10/30 06:37:59;;;;;;;155.02;40.80;;;17.80;46.60;;;;;;5037444;28;20111;-56
2022/10/30 06:40:26;;;;;;;143.02;41.40;;;17.70;48.50;;;;;;5036514;28;20074;-56
2022/10/30 06:42:53;;;;;;;148.27;41.80;;;17.80;47.90;;;;;;5037495;28;20085;-60
2022/10/30 06:45:21;;;;;;;153.77;40.35;;;17.70;47.20;;;;;;5041238;28;20085;-55
2022/10/30 06:47:48;;;;;;;158.77;41.75;;;17.70;48.20;;;;;;5041418;28;20085;-55
2022/10/30 06:50:17;;;;;;;139.13;38.97;;;17.70;48.00;;;;;;5037836;28;20160;-56
2022/10/30 06:52:44;;;;;;;146.98;39.85;;;17.70;47.90;;;;;;5037837;28;20511;-55
2022/10/30 06:55:10;;;;;;;147.80;40.60;;;17.70;47.60;;;;;;5036244;28;20100;-56
2022/10/30 06:57:37;;;;;;;135.95;40.15;;;17.60;47.90;;;;;;5035273;28;20105;-61
2022/10/30 07:00:07;;;;;;;128.80;38.15;;;17.60;49.20;;;;;;5042194;28;20077;-55
2022/10/30 07:02:34;;;;;;;149.57;39.60;;;17.50;49.10;;;;;;5042632;28;20093;-56
2022/10/30 07:05:01;;;;;;;126.43;38.75;;;17.60;47.80;;;;;;5036108;28;20583;-61
2022/10/30 07:07:29;;;;;;;136.93;38.95;;;17.50;47.60;;;;;;5034342;28;20078;-56
2022/10/30 07:09:55;;;;;;;146.95;38.92;;;17.40;49.20;;;;;;5042718;28;20066;-59
2022/10/30 07:12:21;;;;;;;149.38;39.92;;;17.50;48.00;;;;;;5036977;28;20090;-57
2022/10/30 07:14:48;;;;;;;159.05;41.67;;;17.50;48.00;;;;;;5037303;28;20106;-59
2022/10/30 07:17:14;;;;;;;139.55;39.63;;;17.50;47.90;;;;;;5039287;28;20530;-56
2022/10/30 07:19:40;;;;;;;156.25;39.63;;;17.50;48.30;;;;;;5037630;28;20585;-59
2022/10/30 07:22:06;;;;;;;;;;;17.50;47.70;;;;;;5038078;28;20100;-58
2022/10/30 07:24:33;;;;;;;142.30;37.80;;;17.50;47.40;;;;;;5035937;28;20028;-55
2022/10/30 07:26:59;;;;;;;;;;;17.20;49.00;;;;;;5032806;28;20161;-55
2022/10/30 07:29:25;;;;;;;128.63;37.80;;;17.30;48.50;;;;;;5039218;28;20048;-55
2022/10/30 07:31:51;;;;;;;;;;;17.20;49.10;;;;;;5040803;28;20118;-56
2022/10/30 07:34:18;;;;;;;136.52;36.70;;;17.20;48.50;;;;;;5036876;28;20362;-55
2022/10/30 07:36:44;;;;;;;118.05;34.22;;;17.30;48.20;;;;;;5035766;28;20109;-58
2022/10/30 07:39:10;;;;;;;142.52;36.42;;;17.30;48.40;;;;;;5032404;28;20076;-56
2022/10/30 07:41:37;;;;;;;121.15;36.83;;;17.20;49.40;;;;;;5037114;28;20607;-56
2022/10/30 07:44:03;;;;;;;;;;;17.20;49.70;;;;;;5036766;28;20093;-55
2022/10/30 07:46:29;;;;;;;132.95;36.40;;;17.20;49.10;;;;;;5041030;28;20064;-60
2022/10/30 07:48:55;;;;;;;;;;;17.10;48.90;;;;;;5037240;28;20436;-56
2022/10/30 07:51:22;;;;;;;105.28;34.42;;;17.00;49.40;;;;;;5040843;28;20664;-61
2022/10/30 07:53:48;;;;;;;124.30;33.60;;;17.00;49.00;;;;;;5039932;28;20593;-61
2022/10/30 07:56:15;;;;;;;127.70;36.58;;;16.90;49.40;;;;;;5038147;28;20090;-59
2022/10/30 07:58:41;;;;;;;101.43;33.40;;;16.80;50.40;;;;;;5032182;28;20113;-59
2022/10/30 08:01:08;;;;;;;127.03;34.47;;;16.80;49.90;;;;;;5033598;28;20069;-60
2022/10/30 08:03:34;;;;;;;129.32;34.83;;;16.80;50.00;;;;;;5032847;28;20125;-55
2022/10/30 08:06:00;;;;;;;;;;;16.90;49.30;;;;;;5034098;28;20069;-61
2022/10/30 08:08:26;;;;;;;118.32;30.02;;;17.00;48.80;;;;;;5036085;28;21623;-56
2022/10/30 08:10:53;;;;;;;97.07;27.67;;;16.90;48.20;;;;;;5035541;28;20093;-58
2022/10/30 08:13:19;;;;;;;102.18;26.77;;;16.90;48.80;;;;;;5038261;28;20066;-57
2022/10/30 08:15:45;;;;;;;;;;;16.90;48.00;;;;;;5035446;28;20106;-58
2022/10/30 08:18:11;;;;;;;71.07;18.35;;;16.90;46.30;;;;;;5034794;28;19993;-61
2022/10/30 08:20:37;;;;;;;;;;;17.00;45.80;;;;;;5035777;28;20082;-56
2022/10/30 08:23:04;;;;;;;47.75;10.40;;;16.90;43.80;;;;;;5041235;28;19957;-60
2022/10/30 08:25:30;;;;;;;;;;;17.00;43.40;;;;;;5042777;28;20073;-59
2022/10/30 08:28:02;;;;;;;21.88;5.65;;;17.00;42.20;;;;;;5034306;28;20391;-57
2022/10/30 08:30:33;;;;;;;20.50;3.50;;;17.00;40.50;;;;;;5034047;28;20644;-61
2022/10/30 08:33:01;;;;;;;11.45;2.70;;;17.00;40.10;;;;;;5038537;28;20469;-56
2022/10/30 08:35:28;;;;;;;10.13;2.42;;;17.10;39.80;;;;;;5038817;28;20073;-54
2022/10/30 08:37:55;;;;;;;9.45;2.15;;;17.00;38.90;;;;;;5038649;28;20069;-55
2022/10/30 08:40:22;;;;;;;11.80;2.50;;;17.10;39.10;;;;;;5036910;28;20076;-61
2022/10/30 08:42:52;;;;;;;8.77;2.00;;;17.10;38.40;;;;;;5034618;28;20506;-60
2022/10/30 08:45:20;;;;;;;9.90;2.00;;;17.10;38.40;;;;;;5034777;28;20546;-58
2022/10/30 08:47:47;;;;;;;8.63;1.48;;;17.10;36.90;;;;;;5033896;28;20066;-60
2022/10/30 08:50:14;;;;;;;7.70;1.30;;;17.30;35.40;;;;;;5033111;28;20192;-55
2022/10/30 08:52:40;;;;;;;6.35;1.20;;;17.40;33.90;;;;;;5044350;28;20173;-58
2022/10/30 08:55:07;;;;;;;5.18;1.10;;;17.70;32.30;;;;;;5036430;28;20073;-59
2022/10/30 08:57:37;;;;;;;5.93;1.50;;;17.90;31.30;;;;;;5038588;28;20143;-57
2022/10/30 09:00:05;;;;;;;4.60;1.13;;;18.10;30.70;;;;;;5035822;28;20433;-54
2022/10/30 09:02:32;;;;;;;5.60;1.02;;;18.20;30.10;;;;;;5033011;28;20070;-59
2022/10/30 09:04:58;;;;;;;7.20;1.15;;;18.40;30.40;;;;;;5035149;28;20156;-55
2022/10/30 09:07:25;;;;;;;6.57;1.10;;;18.40;30.10;;;;;;5037070;28;20109;-56
2022/10/30 09:09:51;;;;;;;5.40;1.00;;;18.50;29.90;;;;;;5035446;28;20520;-56
2022/10/30 09:12:18;;;;;;;5.97;1.35;;;18.50;30.00;;;;;;5034894;28;20132;-62
2022/10/30 09:14:44;;;;;;;3.83;0.90;;;18.50;30.50;;;;;;5032254;28;20129;-55
2022/10/30 09:17:11;;;;;;;7.82;1.08;;;18.40;30.20;;;;;;5037378;28;20531;-55
2022/10/30 09:19:37;;;;;;;8.07;1.00;;;18.40;31.10;;;;;;5042305;28;20082;-55
2022/10/30 09:22:04;;;;;;;12.45;1.38;;;18.40;31.50;;;;;;5034182;28;20553;-55
2022/10/30 09:24:30;;;;;;;8.05;1.23;;;18.40;31.10;;;;;;5039122;28;20078;-54
2022/10/30 09:26:56;;;;;;;12.80;3.28;;;18.30;31.20;;;;;;5034674;28;20085;-56
2022/10/30 09:29:23;;;;;;;11.80;5.25;;;18.30;30.70;;;;;;5034032;28;20148;-58
2022/10/30 09:31:50;;;;;;;9.07;1.58;;;18.30;30.90;;;;;;5032520;28;20081;-56
2022/10/30 09:34:16;;;;;;;12.45;1.75;;;18.30;30.60;;;;;;5032339;28;20077;-58
2022/10/30 09:36:42;;;;;;;9.30;1.58;;;18.30;30.60;;;;;;5035144;28;20077;-58
2022/10/30 09:39:10;;;;;;;6.05;1.50;;;18.30;30.40;;;;;;5040017;28;20106;-59
2022/10/30 09:42:18;;;;;;;9.43;1.55;;;18.30;31.70;;;;;;5048579;28;20084;-55
2022/10/30 09:44:53;;;;;;;4.32;1.42;;;18.30;30.30;;;;;;5038883;28;20090;-61
2022/10/30 09:47:42;;;;;;;9.98;1.77;;;18.20;31.00;;;;;;5048146;28;20123;-56
2022/10/30 09:50:28;;;;;;;4.60;1.50;;;18.20;30.90;;;;;;5039204;28;20066;-54
2022/10/30 09:53:10;;;;;;;5.05;1.38;;;18.20;32.10;;;;;;5039507;28;20078;-59
2022/10/30 09:55:39;;;;;;;9.00;1.80;;;18.20;31.70;;;;;;5040441;28;20119;-54
2022/10/30 09:58:18;;;;;;;7.70;2.42;;;18.10;32.00;;;;;;5045025;28;20156;-56
2022/10/30 10:01:01;;;;;;;9.98;2.45;;;18.00;31.40;;;;;;5040144;28;20070;-57
2022/10/30 10:03:41;;;;;;;6.70;2.22;;;18.10;32.40;;;;;;5040718;28;20085;-54
2022/10/30 10:06:16;;;;;;;7.97;2.30;;;18.00;32.80;;;;;;5041366;28;20097;-58
2022/10/30 10:08:47;;;;;;;6.68;1.70;;;17.90;33.20;;;;;;5045583;28;20530;-56
2022/10/30 10:11:34;;;;;;;10.63;1.85;;;17.80;33.30;;;;;;5043212;28;20092;-60
2022/10/30 10:14:22;;;;;;;7.93;1.92;;;17.80;33.90;;;;;;5044112;28;20090;-57
2022/10/30 10:16:57;;;;;;;6.22;1.77;;;17.80;34.80;;;;;;5044923;28;20987;-56
2022/10/30 10:19:46;;;;;;;10.07;1.63;;;17.60;36.80;;;;;;5042135;28;20549;-56
2022/10/30 10:22:40;;;;;;;7.72;1.67;;;17.50;37.10;;;;;;5041046;28;20581;-57
2022/10/30 10:25:12;;;;;;;8.98;1.73;;;17.50;36.00;;;;;;5040641;28;20080;-57
2022/10/30 10:27:55;;;;;;;15.02;1.88;;;17.40;36.20;;;;;;5038649;28;20084;-56
2022/10/30 10:30:23;;;;;;;8.40;1.88;;;17.50;35.60;;;;;;5043978;28;20062;-56
2022/10/30 10:33:06;;;;;;;8.95;1.92;;;17.40;37.40;;;;;;5041171;28;20430;-55
2022/10/30 10:36:09;;;;;;;9.95;2.10;;;17.40;35.50;;;;;;5040711;28;20534;-57
2022/10/30 10:38:53;;;;;;;14.13;2.78;;;17.30;35.00;;;;;;5039495;28;20096;-56
2022/10/30 10:41:43;;;;;;;12.75;2.33;;;17.30;35.20;;;;;;5045845;28;20069;-57
2022/10/30 10:44:15;;;;;;;15.40;2.85;;;17.30;34.70;;;;;;5042056;28;20090;-59
2022/10/30 10:46:56;;;;;;;17.92;3.53;;;17.30;34.40;;;;;;5040649;28;20148;-62
2022/10/30 10:49:50;;;;;;;14.85;3.10;;;17.30;35.40;;;;;;5035226;28;20183;-55
2022/10/30 10:52:45;;;;;;;9.85;2.50;;;17.20;35.10;;;;;;5037352;28;20569;-55
2022/10/30 10:55:25;;;;;;;11.25;2.25;;;17.20;34.40;;;;;;5031684;28;20082;-55
2022/10/30 10:57:52;;;;;;;6.72;2.20;;;17.20;33.90;;;;;;5037005;28;20108;-56
2022/10/30 11:00:24;;;;;;;10.02;2.25;;;17.20;34.30;;;;;;5035615;28;20161;-57
2022/10/30 11:03:08;;;;;;;12.82;3.50;;;17.20;35.30;;;;;;5037173;28;20066;-56
2022/10/30 11:05:38;;;;;;;16.90;3.63;;;17.10;35.40;;;;;;5035786;28;20094;-56
2022/10/30 11:08:17;;;;;;;18.23;3.20;;;17.00;35.30;;;;;;5035095;28;20070;-55
2022/10/30 11:10:48;;;;;;;12.60;3.03;;;17.10;35.10;;;;;;5035449;28;20085;-55
2022/10/30 11:13:14;;;;;;;13.18;2.60;;;17.10;35.00;;;;;;5034960;28;20066;-55
2022/10/30 11:15:59;;;;;;;14.70;3.00;;;16.90;35.30;;;;;;5037655;28;20108;-56
2022/10/30 11:18:25;;;;;;;13.73;2.75;;;16.80;35.60;;;;;;5036092;28;20610;-55
2022/10/30 11:20:54;;;;;;;;;;;16.80;36.20;;;;;;5035106;28;20550;-56
2022/10/30 11:23:56;;;;;;;20.50;4.30;;;16.70;36.70;;;;;;5037751;28;20004;-55
2022/10/30 11:26:22;;;;;;;26.17;6.60;;;16.70;37.00;;;;;;5008363;28;20105;-57
2022/10/30 11:29:07;;;;;;;;;;;16.60;37.20;;;;;;5009460;28;20132;-58
2022/10/30 11:31:39;;;;;;;24.08;6.28;;;16.70;36.00;;;;;;5007952;28;19981;-55
2022/10/30 11:34:27;;;;;;;20.40;4.57;;;16.70;35.70;;;;;;4991695;28;20559;-56
2022/10/30 11:36:54;;;;;;;8.25;3.05;;;16.70;35.90;;;;;;5007497;28;20066;-59
2022/10/30 11:39:28;;;;;;;10.77;2.60;;;16.60;34.90;;;;;;5008206;28;20093;-60
2022/10/30 11:42:00;;;;;;;13.07;2.30;;;16.60;36.40;;;;;;5008219;28;20205;-57
2022/10/30 11:44:36;;;;;;;10.82;1.70;;;16.50;35.80;;;;;;5007797;28;20101;-59
2022/10/30 11:47:04;;;;;;;7.88;1.92;;;16.50;35.80;;;;;;5009411;28;20090;-55
2022/10/30 11:49:39;;;;;;;8.75;2.67;;;16.60;36.60;;;;;;5008842;28;20170;-58
2022/10/30 11:52:07;;;;;;;13.20;2.78;;;16.60;37.00;;;;;;5008837;28;20093;-57
2022/10/30 11:54:43;;;;;;;10.30;3.00;;;16.50;36.60;;;;;;5008146;28;20120;-59
2022/10/30 11:57:36;;;;;;;13.38;3.08;;;16.50;36.70;;;;;;5008512;28;20132;-57
2022/10/30 12:00:07;;;;;;;18.13;3.05;;;16.50;36.80;;;;;;5013274;28;21831;-57
2022/10/30 12:02:41;;;;;;;12.48;2.53;;;16.40;37.10;;;;;;5036464;28;20131;-57
2022/10/30 12:05:26;;;;;;;14.27;3.03;;;16.40;37.20;;;;;;5037486;28;20073;-60
2022/10/30 12:07:58;;;;;;;8.65;1.98;;;16.30;37.70;;;;;;5039132;28;20073;-55
2022/10/30 12:10:26;;;;;;;12.00;2.38;;;16.20;38.30;;;;;;5038065;28;20161;-59
2022/10/30 12:12:53;;;;;;;11.35;1.50;;;16.20;38.70;;;;;;5039777;28;20539;-57
2022/10/30 12:15:25;;;;;;;5.95;1.75;;;16.20;39.10;;;;;;5035346;28;20159;-56
2022/10/30 12:17:59;;;;;;;8.23;1.70;;;16.20;39.60;;;;;;5037081;28;20062;-63
2022/10/30 12:20:26;;;;;;;9.65;1.40;;;16.20;39.30;;;;;;5036055;28;20474;-56
2022/10/30 12:22:54;;;;;;;6.13;1.40;;;16.10;39.60;;;;;;5035856;28;20073;-57
2022/10/30 12:25:30;;;;;;;13.32;1.98;;;16.10;39.70;;;;;;5033926;28;20061;-56
2022/10/30 12:28:19;;;;;;;12.00;2.13;;;16.00;40.60;;;;;;5033093;28;20069;-57
2022/10/30 12:31:02;;;;;;;13.35;2.42;;;16.00;41.00;;;;;;5041046;28;20597;-56
2022/10/30 12:33:58;;;;;;;6.35;1.90;;;16.00;41.30;;;;;;5037616;28;20065;-57
2022/10/30 12:36:32;;;;;;;9.35;1.48;;;15.90;41.70;;;;;;5032738;28;20171;-57
2022/10/30 12:39:11;;;;;;;28.33;2.55;;;15.90;42.20;;;;;;5035755;28;20093;-55
2022/10/30 12:41:50;;;;;;;9.98;1.70;;;15.90;42.50;;;;;;5035481;28;20082;-60
2022/10/30 12:44:20;;;;;;;9.55;1.70;;;15.90;42.40;;;;;;5034138;28;20073;-59
2022/10/30 12:47:16;;;;;;;9.52;1.75;;;15.80;42.30;;;;;;5034823;28;20078;-59
2022/10/30 12:49:59;;;;;;;7.43;1.85;;;15.90;42.40;;;;;;5039129;28;20180;-61
2022/10/30 12:52:48;;;;;;;10.25;1.80;;;15.80;43.30;;;;;;5036904;28;20446;-56
2022/10/30 12:55:36;;;;;;;7.97;1.85;;;15.90;43.50;;;;;;5034843;28;20096;-60